NCAR-RAP Real-Time Weather Data

Output produced by METARs form (24 April 2018  16:24 UTC)
found at http://weather.rap.ucar.edu/surface/
 
ROAH 241600Z 33010KT 9999 FEW008 BKN012 21/19 Q1010 RMK 1ST008 6CU012 A2984
ROAH 241530Z 33012KT 9999 FEW008 SCT010 BKN015 21/19 Q1010 RMK 1ST008 4CU010 6CU015 A2984
ROAH 241500Z 34012KT 9999 VCSH FEW006 BKN010 BKN020 21/19 Q1010 RMK 1ST006 5CU010 6CU020 A2985
ROAH 241430Z 34013KT 9999 VCSH FEW004 SCT008 BKN020 21/20 Q1010 RMK 1ST004 3ST008 6CU020 A2984
ROAH 241400Z 33014KT 9000 -RA FEW004 SCT007 BKN013 21/20 Q1010 RMK 1ST004 3ST007 5CU013 A2985
ROAH 241330Z 34012KT 9999 -SHRA FEW006 BKN013 22/20 Q1010 RMK 2ST006 6CU013 A2984
ROAH 241300Z 34009KT 9999 SHRA FEW005 SCT020 BKN070 22/20 Q1010 RMK 2ST005 3CU020 6AC070 A2984
ROAH 241230Z 34011KT 9999 SHRA FEW005 SCT020 BKN070 22/21 Q1010 RMK 2ST005 3CU020 6AC070 A2983
ROAH 241217Z 35011KT 9999 SHRA FEW005 SCT030 BKN040 22/21 Q1010 RMK 2ST005 3CU030 6SC040 A2983
ROAH 241200Z 34013KT 8000 TSRA FEW005 FEW020CB SCT030 BKN050 22/21 Q1009 RMK 2ST005 2CB020 3CU030 6SC050 A2982 FBL TS 10KM NE MOV NE
ROAH 241147Z 32008KT 280V350 6000 TSRA FEW005 FEW010CB BKN025 BKN050 22/21 Q1009 RMK 2ST005 2CB010 5CU025 6SC050 A2982 FBL TS 8KM N-NE MOV NE
ROAH 241138Z 28008KT 250V320 4000 TSRA SCT005 FEW010CB BKN025 23/22 Q1009 RMK 3ST005 2CB010 6CU025 A2981 FBL TS 5KM N-NE MOV NE
ROAH 241130Z 25011KT 230V320 2000 R36/P1800N TSRA SCT005 SCT010CB BKN020 23/22 Q1009 RMK 3ST005 3CB010 6CU020 A2982 MOD TS OHD MOV NE
ROAH 241117Z 23012KT 170V300 2000 +TSRA BKN005 SCT010CB BKN015 23/22 Q1009 RMK 5ST005 3CB010 6CU015 A2981 MOD TS OHD MOV NE RI++
ROAH 241109Z 19009KT 4000 TSRA BKN005 SCT010CB BKN015 25/23 Q1009 RMK 5ST005 3CB010 6CU015 A2980 FBL TS OHD MOV NE
ROAH 241100Z 20010KT 4000 SHRA BKN006 FEW010TCU BKN015 25/24 Q1008 RMK 5ST006 2TCU010 6CU015 A2979 TCU 8KM W-N MOV NE
ROAH 241030Z 19011KT 6000 -SHRA BKN007 BKN015 25/23 Q1008 RMK 5ST007 6CU015 A2979
ROAH 241000Z 19010KT 9999 -SHRA FEW007 SCT015 BKN050 25/23 Q1008 RMK 2ST007 3CU015 7SC050 A2978
ROAH 240930Z 19012KT 9999 VCSH FEW008 SCT020 BKN045 25/23 Q1008 RMK 2ST008 4CU020 7SC045 A2977
ROAH 240900Z 19011KT 9999 FEW007 SCT020 BKN030 25/23 Q1008 RMK 1ST007 3CU020 7CU030 A2977
ROAH 240830Z 19011KT 9999 FEW006 SCT010 BKN030 25/23 Q1007 RMK 1ST006 4CU010 7CU030 A2976
ROAH 240800Z 18014KT 9999 FEW005 BKN010 BKN030 25/23 Q1007 RMK 2ST005 5CU010 7CU030 A2975
ROAH 240730Z 18014KT 9999 FEW005 SCT010 BKN030 25/23 Q1007 RMK 1ST005 3CU010 7CU030 A2975
ROAH 240700Z 18015KT 9999 FEW007 SCT010 BKN045 26/23 Q1007 RMK 1ST007 3CU010 7SC045 A2975
ROAH 240630Z 18014KT 9999 SCT010 BKN045 26/23 Q1007 RMK 3CU010 7SC045 A2975
ROAH 240600Z 18014KT 9999 SCT010 BKN045 26/23 Q1008 RMK 4CU010 7SC045 A2977
ROAH 240530Z 18015KT 9999 SCT010 BKN045 26/23 Q1008 RMK 4CU010 7SC045 A2979
ROAH 240500Z 18015KT 9999 FEW010 BKN045 27/24 Q1009 RMK 2CU010 7SC045 A2980
ROAH 240430Z 18015KT 9999 FEW010 SCT045 BKN/// 26/23 Q1009
ROAH 240400Z 18016KT 9999 FEW010 BKN045 27/23 Q1009 RMK 2CU010 6SC045 A2981
ROAH 240330Z 18019KT 9999 FEW008 SCT010 BKN/// 27/23 Q1009
ROAH 240300Z 18017KT 9999 FEW010 SCT015 BKN/// 27/23 Q1010
ROAH 240230Z 18016KT 9999 FEW010 SCT015 BKN060 27/23 Q1010 RMK 1CU010 3CU015 5SC060 A2984
ROAH 240200Z 18017KT 9999 FEW008 SCT010 BKN045 26/22 Q1010 RMK 1ST008 3CU010 5SC045 A2985
ROAH 240130Z 17019KT 9999 FEW008 SCT010 BKN/// 26/22 Q1010
ROAH 240100Z 17018KT 9999 FEW008 SCT010 BKN035 26/22 Q1010 RMK 1ST008 3CU010 5CU035 A2984
ROAH 240030Z 17016KT 9999 FEW008 SCT010 BKN/// 26/23 Q1010 RMK 1ST008 4CU010 A2985
ROAH 240000Z 17015KT 9999 FEW008 BKN010 BKN/// 25/22 Q1011
ROAH 232330Z 16016KT 9999 SCT010 BKN/// 26/22 Q1010
ROAH 232300Z 16015KT 9999 FEW007 SCT010 BKN/// 25/22 Q1010
ROAH 232230Z 16013KT 9999 FEW008 SCT010 BKN040 25/22 Q1010 RMK 2ST008 3CU010 6SC040 A2985
ROAH 232200Z 16012KT 9999 FEW007 SCT009 BKN040 24/22 Q1010 RMK 1ST007 3CU009 5SC040 A2985
ROAH 232130Z 16013KT 9999 FEW007 SCT009 BKN035 24/22 Q1011 RMK 1ST007 4CU009 6CU035 A2985
ROAH 232100Z 16012KT 9999 FEW007 SCT035 BKN100 24/22 Q1010 RMK 2ST007 3CU035 5AC100 A2984
ROAH 232030Z 16011KT 9999 FEW007 SCT020 BKN040 24/22 Q1010 RMK 2ST007 3CU020 6SC040 A2984
ROAH 232013Z 16012KT 9999 FEW007 SCT009 BKN040 24/22 Q1010 RMK 1ST007 3CU009 5SC040 A2983
ROAH 232000Z 17013KT 9999 FEW007 BKN009 24/22 Q1010 RMK 2ST007 6CU009 A2984
ROAH 231930Z 16013KT 9999 FEW006 BKN009 24/22 Q1010 RMK 2ST006 6CU009 A2983
ROAH 231900Z 16012KT 9999 FEW006 BKN009 24/22 Q1010 RMK 2ST006 6CU009 A2983
ROAH 231830Z 15013KT 9999 FEW007 BKN009 24/22 Q1010 RMK 2ST007 6CU009 A2983
ROAH 231800Z 15014KT 9999 FEW008 24/21 Q1010 RMK 2ST008 A2983
ROAH 231730Z VRB10KT 9999 FEW008 24/21 Q1010 RMK 2ST008 A2984
ROAH 231700Z 15013KT 9999 FEW008 SCT035 24/21 Q1011 RMK 1ST008 3CU035 A2985
ROAH 231630Z 15012KT 9999 FEW010 BKN040 24/21 Q1011 RMK 1CU010 5SC040 A2987
ROAH 231600Z 15012KT 9999 FEW010 SCT030 24/21 Q1011 RMK 1CU010 3CU030 A2988
ROAH 231530Z 15012KT 9999 FEW010 BKN040 24/22 Q1012 RMK 1CU010 5SC040 A2989
ROAH 231500Z 15012KT 9999 FEW010 SCT040 24/21 Q1012 RMK 2CU010 3SC040 A2990
ROAH 231430Z 14011KT 9999 FEW010 SCT040 24/22 Q1012 RMK 2CU010 3SC040 A2991
ROAH 231400Z 14012KT 9999 FEW010 BKN040 24/21 Q1013 RMK 1CU010 5SC040 A2992
ROAH 231330Z 14010KT 9999 FEW010 BKN040 24/21 Q1013 RMK 1CU010 5SC040 A2992
ROAH 231300Z 14009KT 9999 FEW010 SCT040 BKN/// 24/21 Q1013 RMK 1CU010 3SC040 A2992
ROAH 231230Z 13010KT 9999 FEW010 SCT040 BKN/// 24/22 Q1013
ROAH 231200Z 14011KT 9999 FEW010 SCT040 BKN/// 24/21 Q1013
ROAH 231130Z 13010KT 9999 FEW010 SCT/// 24/21 Q1012 RMK 2CU010 A2990
ROAH 231100Z 14010KT 9999 FEW012 SCT/// 24/22 Q1012
ROAH 231030Z 14011KT 9999 FEW012 BKN/// 24/21 Q1012
ROAH 231000Z 14010KT 9999 FEW015 BKN/// 24/21 Q1012
ROAH 230930Z 14010KT 9999 FEW015 BKN/// 25/21 Q1012 RMK 2CU015 A2989
ROAH 230900Z 14012KT 9999 FEW015 BKN/// 25/22 Q1011
ROAH 230830Z 14013KT 9999 FEW015 BKN/// 26/21 Q1011
ROAH 230800Z 15013KT 9999 FEW015 BKN/// 26/21 Q1011 RMK 2CU015 A2987
ROAH 230730Z 15013KT 9999 FEW015 BKN/// 26/20 Q1011
ROAH 230700Z 14013KT 9999 SCT015 BKN/// 26/21 Q1011 RMK 4CU015 A2987
ROAH 230630Z 15013KT 9999 BKN015 BKN/// 27/21 Q1012
ROAH 230600Z 14012KT 9999 BKN020 BKN/// 26/21 Q1012
ROAH 230530Z 15014KT 9999 BKN015 27/22 Q1012 RMK 6CU015 A2990
ROAH 230500Z 15014KT 9999 BKN015 27/21 Q1012 RMK 6CU015 A2991
ROAH 230430Z 14013KT 9999 BKN015 BKN/// 26/22 Q1013 RMK 6CU015 A2991
ROAH 230400Z 13013KT 9999 BKN014 BKN/// 26/21 Q1013 RMK 5CU014 A2992
ROAH 230330Z 14014KT 9999 FEW010 BKN014 26/22 Q1013 RMK 1CU010 6CU014 A2992
ROAH 230300Z 14014KT 9999 FEW010 BKN014 26/21 Q1013 RMK 1CU010 6CU014 A2993
ROAH 230230Z 13014KT 9999 FEW010 BKN014 26/21 Q1013 RMK 1CU010 6CU014 A2993
ROAH 230200Z 13013KT 9999 FEW010 BKN014 26/21 Q1013 RMK 2CU010 6CU014 A2994
ROAH 230130Z 14013KT 9999 FEW010 BKN013 26/22 Q1014 RMK 2CU010 5CU013 A2994
ROAH 230100Z 13011KT 9999 FEW010 SCT015 BKN/// 25/21 Q1013 RMK 2CU010 3CU015 A2993
ROAH 230030Z 14011KT 9999 SCT010 BKN015 25/22 Q1014 RMK 3CU010 5CU015 A2995
ROAH 230000Z 14012KT 9999 FEW008 SCT010 BKN090 25/21 Q1014 RMK 1ST008 4CU010 5AC090 A2995
ROAH 222330Z 13011KT 9999 FEW008 SCT010 BKN100 24/21 Q1014 RMK 2ST008 4CU010 5AC100 A2995
ROAH 222300Z 13008KT 9999 FEW007 SCT010 BKN100 24/21 Q1014 RMK 2ST007 3CU010 5AC100 A2995
ROAH 222230Z 12010KT 9999 SCT007 SCT010 BKN160 23/21 Q1014 RMK 3ST007 4CU010 5AC160 A2995
ROAH 222200Z 12008KT 9999 FEW007 SCT010 BKN160 23/21 Q1013 RMK 2ST007 3CU010 5AC160 A2994
ROAH 222130Z 12008KT 100V160 9999 SCT007 SCT010 23/21 Q1013 RMK 3ST007 4CU010 A2994
ROAH 222100Z 12008KT 9999 FEW006 SCT010 23/21 Q1013 RMK 2ST006 3CU010 A2994
ROAH 222030Z 12006KT 9999 FEW006 SCT008 23/21 Q1013 RMK 1ST006 3ST008 A2993
ROAH 222000Z 13006KT 9999 FEW006 BKN012 23/21 Q1013 RMK 2ST006 5CU012 A2994
ROAH 221930Z 14005KT 110V170 9999 FEW009 BKN020 23/21 Q1013 RMK 2CU009 5CU020 A2993
ROAH 221900Z 14007KT 110V170 9999 FEW006 BKN015 23/21 Q1013 RMK 1ST006 5CU015 A2992
ROAH 221830Z 14008KT 9999 FEW006 SCT008 23/21 Q1013 RMK 2ST006 3ST008 A2992
ROAH 221800Z 12005KT 070V140 9999 FEW006 SCT008 23/21 Q1013 RMK 2ST006 3ST008 A2992
ROAH 221730Z 11006KT 9999 FEW006 SCT008 23/21 Q1013 RMK 2ST006 3ST008 A2993
ROAH 221700Z 12004KT 9999 SCT009 23/21 Q1014 RMK 3CU009 A2994
ROAH 221630Z 11004KT 060V140 9999 FEW009 23/21 Q1014 RMK 2CU009 A2995
ROAH 221600Z 13007KT 9999 FEW020 SCT170 23/21 Q1014 RMK 1CU020 3AC170 A2995
ROAH 221530Z 13006KT 9999 FEW020 BKN170 23/21 Q1014 RMK 1CU020 5AC170 A2996
ROAH 221500Z 12006KT 080V160 9999 FEW020 BKN150 23/21 Q1014 RMK 1CU020 5AC150 A2997
ROAH 221430Z 12008KT 9999 FEW020 BKN170 23/21 Q1014 RMK 2CU020 5AC170 A2997
ROAH 221400Z 10006KT 050V130 9999 FEW020 SCT150 23/21 Q1014 RMK 1CU020 4AC150 A2996
ROAH 221330Z 10006KT 060V130 9999 FEW020 BKN170 22/21 Q1014 RMK 1CU020 6AC170 A2997
ROAH 221300Z 09006KT 050V130 9999 FEW020 BKN170 22/20 Q1015 RMK 1CU020 6AC170 A2997
ROAH 221230Z 08004KT 040V100 9999 FEW015 BKN150 23/20 Q1015 RMK 2CU015 6AC150 A2998
ROAH 221200Z 05005KT 9999 FEW015 BKN150 BKN/// 22/20 Q1015
ROAH 221130Z 05003KT 020V080 9999 FEW010 SCT150 BKN/// 22/20 Q1015
ROAH 221100Z VRB02KT 9999 FEW010 SCT180 BKN/// 22/20 Q1014
ROAH 221030Z VRB02KT 9999 FEW010 FEW030CB SCT130 BKN/// 23/21 Q1014
ROAH 221000Z 11004KT 070V170 9999 -RA FEW010 FEW030CB SCT130 BKN/// 23/21 Q1013
ROAH 220930Z 15006KT 9999 -RA FEW010 FEW030CB BKN130 BKN/// 23/20 Q1013
ROAH 220900Z 14010KT 9999 VCSH FEW010 FEW030CB SCT110 BKN/// 23/20 Q1013
ROAH 220830Z 15010KT 9999 FEW010 FEW030CB SCT050 BKN150 23/20 Q1013 RMK 1CU010 1CB030 3SC050 5AC150 A2992 LIGHTNING SW
ROAH 220800Z 15010KT 9999 -RA FEW012 FEW030CB SCT050 BKN090 23/20 Q1012 RMK 1CU012 1CB030 3SC050 5AC090 A2991 LIGHTNING S
ROAH 220730Z 15011KT 9999 -RA FEW012 FEW030CB SCT050 BKN100 23/20 Q1013 RMK 2CU012 1CB030 4SC050 6AC100 A2992 LIGHTNING S
ROAH 220707Z 13010KT 090V160 9999 -SHRA FEW010 SCT020 FEW030CB BKN100 23/20 Q1012 RMK 2CU010 3CU020 2CB030 6AC100 A2990 LIGHTNING SW P/FR
ROAH 220700Z 13012G23KT 090V160 9999 -TSRA FEW010 SCT020 FEW030CB BKN100 23/20 Q1012 RMK 2CU010 3CU020 2CB030 6AC100 A2991 MOD TURB OBS AT 0631Z 30NM SW ROAH BTN 5000FT AND FL160 B734 FBL TS 20KM W STNR P/FR
ROAH 220630Z 15009KT 9999 TSRA FEW010 SCT020 FEW025CB BKN100 23/20 Q1014 RMK 2CU010 4CU020 2CB025 6AC100 A2995 FBL TS 20KM W STNR
ROAH 220619Z 12010KT 9999 SHRA FEW010 SCT020 BKN100 23/20 Q1014 RMK 2CU010 4CU020 6AC100 A2995
ROAH 220600Z 05003KT 9999 -SHRA FEW010 SCT025 FEW030CB BKN100 22/20 Q1015 RMK 2CU010 3CU025 1CB030 6AC100 A2997 MOD TURB OBS AT 0530Z 30NM NW ROAH BTN 7000FT AND 5000FT B738 LIGHTNING W
ROAH 220530Z 09006KT 050V130 9999 -SHRA FEW010 SCT025 BKN100 22/20 Q1014 RMK 2CU010 4CU025 6AC100 A2996
ROAH 220500Z 15010KT 9999 -SHRA FEW010 SCT020 FEW025CB BKN100 22/19 Q1015 RMK 2CU010 3CU020 1CB025 6AC100 A2999 CB 5KM SE MOV NE
ROAH 220430Z 16007KT 130V200 9999 -TSRA FEW010 SCT020 FEW025CB BKN100 21/19 Q1015 RMK 2CU010 3CU020 2CB025 6AC100 A2999 FBL TS 15KM SW MOV NE